sensor_id;sensor_type;location;lat;lon;timestamp;P1;durP1;ratioP1;P2;durP2;ratioP2
58408;SDS011;44202;52.730;6.470;2022-08-30T00:01:04;7.63;;;3.45;;
58408;SDS011;44202;52.730;6.470;2022-08-30T00:03:31;5.45;;;3.60;;
58408;SDS011;44202;52.730;6.470;2022-08-30T00:05:59;4.68;;;3.47;;
58408;SDS011;44202;52.730;6.470;2022-08-30T00:08:24;4.55;;;3.67;;
58408;SDS011;44202;52.730;6.470;2022-08-30T00:10:50;6.53;;;3.90;;
58408;SDS011;44202;52.730;6.470;2022-08-30T00:13:17;6.38;;;4.00;;
58408;SDS011;44202;52.730;6.470;2022-08-30T00:15:43;7.15;;;3.85;;
58408;SDS011;44202;52.730;6.470;2022-08-30T00:18:10;2.90;;;2.15;;
58408;SDS011;44202;52.730;6.470;2022-08-30T00:20:36;4.82;;;3.05;;
58408;SDS011;44202;52.730;6.470;2022-08-30T00:23:02;6.05;;;3.85;;
58408;SDS011;44202;52.730;6.470;2022-08-30T00:25:28;4.65;;;3.80;;
58408;SDS011;44202;52.730;6.470;2022-08-30T00:27:54;5.30;;;4.10;;
58408;SDS011;44202;52.730;6.470;2022-08-30T00:30:20;8.20;;;4.47;;
58408;SDS011;44202;52.730;6.470;2022-08-30T00:32:46;4.80;;;3.90;;
58408;SDS011;44202;52.730;6.470;2022-08-30T00:35:13;6.28;;;4.50;;
58408;SDS011;44202;52.730;6.470;2022-08-30T00:37:42;5.30;;;3.80;;
58408;SDS011;44202;52.730;6.470;2022-08-30T00:40:09;7.78;;;4.35;;
58408;SDS011;44202;52.730;6.470;2022-08-30T00:42:36;13.15;;;4.55;;
58408;SDS011;44202;52.730;6.470;2022-08-30T00:45:12;5.38;;;3.88;;
58408;SDS011;44202;52.730;6.470;2022-08-30T00:47:43;7.50;;;3.78;;
58408;SDS011;44202;52.730;6.470;2022-08-30T00:50:09;7.90;;;4.30;;
58408;SDS011;44202;52.730;6.470;2022-08-30T00:52:37;6.03;;;4.38;;
58408;SDS011;44202;52.730;6.470;2022-08-30T00:55:05;7.28;;;4.50;;
58408;SDS011;44202;52.730;6.470;2022-08-30T00:57:31;4.80;;;2.80;;
58408;SDS011;44202;52.730;6.470;2022-08-30T01:00:00;7.55;;;4.05;;
58408;SDS011;44202;52.730;6.470;2022-08-30T01:02:27;7.03;;;3.47;;
58408;SDS011;44202;52.730;6.470;2022-08-30T01:04:57;6.05;;;4.47;;
58408;SDS011;44202;52.730;6.470;2022-08-30T01:07:25;7.70;;;3.80;;
58408;SDS011;44202;52.730;6.470;2022-08-30T01:09:51;4.18;;;2.60;;
58408;SDS011;44202;52.730;6.470;2022-08-30T01:12:17;6.72;;;3.60;;
58408;SDS011;44202;52.730;6.470;2022-08-30T01:14:43;4.47;;;3.53;;
58408;SDS011;44202;52.730;6.470;2022-08-30T01:17:09;9.95;;;3.75;;
58408;SDS011;44202;52.730;6.470;2022-08-30T01:19:43;5.55;;;3.63;;
58408;SDS011;44202;52.730;6.470;2022-08-30T01:22:24;4.85;;;3.17;;
58408;SDS011;44202;52.730;6.470;2022-08-30T01:25:03;8.52;;;3.60;;
58408;SDS011;44202;52.730;6.470;2022-08-30T01:27:32;12.27;;;4.30;;
58408;SDS011;44202;52.730;6.470;2022-08-30T01:30:03;5.53;;;4.10;;
58408;SDS011;44202;52.730;6.470;2022-08-30T01:32:30;7.57;;;3.67;;
58408;SDS011;44202;52.730;6.470;2022-08-30T01:34:56;6.25;;;3.95;;
58408;SDS011;44202;52.730;6.470;2022-08-30T01:37:26;8.75;;;4.07;;
58408;SDS011;44202;52.730;6.470;2022-08-30T01:39:54;4.95;;;3.70;;
58408;SDS011;44202;52.730;6.470;2022-08-30T01:42:20;8.60;;;4.20;;
58408;SDS011;44202;52.730;6.470;2022-08-30T01:44:47;11.80;;;4.30;;
58408;SDS011;44202;52.730;6.470;2022-08-30T01:47:14;6.82;;;3.63;;
58408;SDS011;44202;52.730;6.470;2022-08-30T01:49:42;4.43;;;2.85;;
58408;SDS011;44202;52.730;6.470;2022-08-30T01:52:09;6.03;;;3.83;;
58408;SDS011;44202;52.730;6.470;2022-08-30T01:54:36;7.75;;;4.47;;
58408;SDS011;44202;52.730;6.470;2022-08-30T01:57:04;9.40;;;4.53;;
58408;SDS011;44202;52.730;6.470;2022-08-30T01:59:32;6.57;;;3.40;;
58408;SDS011;44202;52.730;6.470;2022-08-30T02:01:58;6.78;;;4.50;;
58408;SDS011;44202;52.730;6.470;2022-08-30T02:04:24;7.57;;;4.50;;
58408;SDS011;44202;52.730;6.470;2022-08-30T02:06:51;6.85;;;4.65;;
58408;SDS011;44202;52.730;6.470;2022-08-30T02:09:17;8.57;;;5.07;;
58408;SDS011;44202;52.730;6.470;2022-08-30T02:11:43;7.53;;;5.07;;
58408;SDS011;44202;52.730;6.470;2022-08-30T02:14:09;8.27;;;4.85;;
58408;SDS011;44202;52.730;6.470;2022-08-30T02:16:35;7.07;;;4.43;;
58408;SDS011;44202;52.730;6.470;2022-08-30T02:19:01;5.40;;;3.60;;
58408;SDS011;44202;52.730;6.470;2022-08-30T02:21:27;5.60;;;3.63;;
58408;SDS011;44202;52.730;6.470;2022-08-30T02:23:53;7.65;;;4.90;;
58408;SDS011;44202;52.730;6.470;2022-08-30T02:26:19;10.57;;;5.28;;
58408;SDS011;44202;52.730;6.470;2022-08-30T02:28:46;5.15;;;3.60;;
58408;SDS011;44202;52.730;6.470;2022-08-30T02:31:12;8.80;;;5.50;;
58408;SDS011;44202;52.730;6.470;2022-08-30T02:33:38;7.30;;;4.65;;
58408;SDS011;44202;52.730;6.470;2022-08-30T02:36:04;10.77;;;5.00;;
58408;SDS011;44202;52.730;6.470;2022-08-30T02:38:30;7.95;;;4.68;;
58408;SDS011;44202;52.730;6.470;2022-08-30T02:40:56;7.53;;;4.72;;
58408;SDS011;44202;52.730;6.470;2022-08-30T02:43:22;7.63;;;4.50;;
58408;SDS011;44202;52.730;6.470;2022-08-30T02:45:48;8.93;;;4.60;;
58408;SDS011;44202;52.730;6.470;2022-08-30T02:48:14;8.50;;;3.97;;
58408;SDS011;44202;52.730;6.470;2022-08-30T02:50:41;7.32;;;5.20;;
58408;SDS011;44202;52.730;6.470;2022-08-30T02:53:08;8.35;;;5.47;;
58408;SDS011;44202;52.730;6.470;2022-08-30T02:55:34;7.88;;;5.88;;
58408;SDS011;44202;52.730;6.470;2022-08-30T02:58:00;8.70;;;5.22;;
58408;SDS011;44202;52.730;6.470;2022-08-30T03:00:26;7.05;;;4.57;;
58408;SDS011;44202;52.730;6.470;2022-08-30T03:02:52;10.30;;;6.32;;
58408;SDS011;44202;52.730;6.470;2022-08-30T03:05:18;10.48;;;6.07;;
58408;SDS011;44202;52.730;6.470;2022-08-30T03:07:44;9.52;;;5.75;;
58408;SDS011;44202;52.730;6.470;2022-08-30T03:10:11;6.97;;;5.60;;
58408;SDS011;44202;52.730;6.470;2022-08-30T03:12:37;9.63;;;6.10;;
58408;SDS011;44202;52.730;6.470;2022-08-30T03:15:04;10.10;;;6.50;;
58408;SDS011;44202;52.730;6.470;2022-08-30T03:17:30;10.90;;;6.32;;
58408;SDS011;44202;52.730;6.470;2022-08-30T03:19:56;8.88;;;6.47;;
58408;SDS011;44202;52.730;6.470;2022-08-30T03:22:24;9.43;;;6.45;;
58408;SDS011;44202;52.730;6.470;2022-08-30T03:24:50;10.05;;;6.60;;
58408;SDS011;44202;52.730;6.470;2022-08-30T03:27:16;10.70;;;6.57;;
58408;SDS011;44202;52.730;6.470;2022-08-30T03:29:41;10.70;;;6.60;;
58408;SDS011;44202;52.730;6.470;2022-08-30T03:32:07;9.20;;;7.03;;
58408;SDS011;44202;52.730;6.470;2022-08-30T03:34:33;12.32;;;7.65;;
58408;SDS011;44202;52.730;6.470;2022-08-30T03:36:58;13.40;;;7.00;;
58408;SDS011;44202;52.730;6.470;2022-08-30T03:39:25;9.82;;;6.82;;
58408;SDS011;44202;52.730;6.470;2022-08-30T03:41:51;9.10;;;7.20;;
58408;SDS011;44202;52.730;6.470;2022-08-30T03:44:18;6.07;;;5.05;;
58408;SDS011;44202;52.730;6.470;2022-08-30T03:46:45;11.60;;;6.55;;
58408;SDS011;44202;52.730;6.470;2022-08-30T03:49:11;9.10;;;6.00;;
58408;SDS011;44202;52.730;6.470;2022-08-30T03:51:36;8.55;;;6.95;;
58408;SDS011;44202;52.730;6.470;2022-08-30T03:54:02;9.32;;;7.03;;
58408;SDS011;44202;52.730;6.470;2022-08-30T03:56:28;10.27;;;7.43;;
58408;SDS011;44202;52.730;6.470;2022-08-30T03:58:54;9.32;;;7.13;;
58408;SDS011;44202;52.730;6.470;2022-08-30T04:01:19;8.38;;;6.80;;
58408;SDS011;44202;52.730;6.470;2022-08-30T04:03:45;11.52;;;7.05;;
58408;SDS011;44202;52.730;6.470;2022-08-30T04:06:11;8.82;;;6.15;;
58408;SDS011;44202;52.730;6.470;2022-08-30T04:08:37;9.85;;;6.80;;
58408;SDS011;44202;52.730;6.470;2022-08-30T04:11:03;8.60;;;6.85;;
58408;SDS011;44202;52.730;6.470;2022-08-30T04:13:29;11.48;;;7.30;;
58408;SDS011;44202;52.730;6.470;2022-08-30T04:15:55;6.53;;;4.90;;
58408;SDS011;44202;52.730;6.470;2022-08-30T04:18:21;6.95;;;6.20;;
58408;SDS011;44202;52.730;6.470;2022-08-30T04:20:47;7.38;;;5.90;;
58408;SDS011;44202;52.730;6.470;2022-08-30T04:23:12;9.88;;;7.70;;
58408;SDS011;44202;52.730;6.470;2022-08-30T04:25:39;9.18;;;6.47;;
58408;SDS011;44202;52.730;6.470;2022-08-30T04:28:06;11.73;;;8.32;;
58408;SDS011;44202;52.730;6.470;2022-08-30T04:30:33;9.85;;;7.53;;
58408;SDS011;44202;52.730;6.470;2022-08-30T04:33:02;11.65;;;8.13;;
58408;SDS011;44202;52.730;6.470;2022-08-30T04:35:27;10.93;;;8.60;;
58408;SDS011;44202;52.730;6.470;2022-08-30T04:37:53;10.95;;;6.90;;
58408;SDS011;44202;52.730;6.470;2022-08-30T04:40:19;9.63;;;8.57;;
58408;SDS011;44202;52.730;6.470;2022-08-30T04:42:45;9.43;;;7.13;;
58408;SDS011;44202;52.730;6.470;2022-08-30T04:45:12;11.45;;;7.38;;
58408;SDS011;44202;52.730;6.470;2022-08-30T04:47:40;11.55;;;8.70;;
58408;SDS011;44202;52.730;6.470;2022-08-30T04:50:08;8.13;;;6.35;;
58408;SDS011;44202;52.730;6.470;2022-08-30T04:52:36;10.85;;;8.57;;
58408;SDS011;44202;52.730;6.470;2022-08-30T04:55:02;10.65;;;7.47;;
58408;SDS011;44202;52.730;6.470;2022-08-30T04:57:28;13.75;;;8.20;;
58408;SDS011;44202;52.730;6.470;2022-08-30T04:59:54;13.65;;;9.00;;
58408;SDS011;44202;52.730;6.470;2022-08-30T05:02:20;10.50;;;6.65;;
58408;SDS011;44202;52.730;6.470;2022-08-30T05:04:45;9.63;;;8.05;;
58408;SDS011;44202;52.730;6.470;2022-08-30T05:07:30;12.85;;;9.07;;
58408;SDS011;44202;52.730;6.470;2022-08-30T05:09:56;9.68;;;8.23;;
58408;SDS011;44202;52.730;6.470;2022-08-30T05:12:22;10.48;;;8.70;;
58408;SDS011;44202;52.730;6.470;2022-08-30T05:14:48;13.43;;;8.70;;
58408;SDS011;44202;52.730;6.470;2022-08-30T05:17:14;15.18;;;9.82;;
58408;SDS011;44202;52.730;6.470;2022-08-30T05:19:40;12.52;;;9.48;;
58408;SDS011;44202;52.730;6.470;2022-08-30T05:22:06;11.73;;;6.30;;
58408;SDS011;44202;52.730;6.470;2022-08-30T05:24:32;13.45;;;9.15;;
58408;SDS011;44202;52.730;6.470;2022-08-30T05:26:59;12.07;;;9.55;;
58408;SDS011;44202;52.730;6.470;2022-08-30T05:29:24;10.70;;;7.85;;
58408;SDS011;44202;52.730;6.470;2022-08-30T05:31:50;11.05;;;7.68;;
58408;SDS011;44202;52.730;6.470;2022-08-30T05:34:16;11.20;;;7.57;;
58408;SDS011;44202;52.730;6.470;2022-08-30T05:36:42;11.95;;;8.02;;
58408;SDS011;44202;52.730;6.470;2022-08-30T05:39:08;10.50;;;6.78;;
58408;SDS011;44202;52.730;6.470;2022-08-30T05:41:34;9.48;;;6.95;;
58408;SDS011;44202;52.730;6.470;2022-08-30T05:44:02;9.68;;;6.80;;
58408;SDS011;44202;52.730;6.470;2022-08-30T05:46:29;10.48;;;7.90;;
58408;SDS011;44202;52.730;6.470;2022-08-30T05:48:57;11.73;;;8.63;;
58408;SDS011;44202;52.730;6.470;2022-08-30T05:51:26;10.38;;;7.22;;
58408;SDS011;44202;52.730;6.470;2022-08-30T05:53:53;9.85;;;6.90;;
58408;SDS011;44202;52.730;6.470;2022-08-30T05:56:22;10.68;;;7.20;;
58408;SDS011;44202;52.730;6.470;2022-08-30T05:58:50;7.97;;;6.78;;
58408;SDS011;44202;52.730;6.470;2022-08-30T06:01:30;7.80;;;5.72;;
58408;SDS011;44202;52.730;6.470;2022-08-30T06:03:58;9.98;;;6.03;;
58408;SDS011;44202;52.730;6.470;2022-08-30T06:06:26;9.32;;;6.05;;
58408;SDS011;44202;52.730;6.470;2022-08-30T06:08:53;7.65;;;5.38;;
58408;SDS011;44202;52.730;6.470;2022-08-30T06:11:20;8.52;;;6.20;;
58408;SDS011;44202;52.730;6.470;2022-08-30T06:13:47;9.02;;;5.40;;
58408;SDS011;44202;52.730;6.470;2022-08-30T06:16:14;8.30;;;5.72;;
58408;SDS011;44202;52.730;6.470;2022-08-30T06:18:42;7.40;;;5.93;;
58408;SDS011;44202;52.730;6.470;2022-08-30T06:21:13;7.57;;;5.50;;
58408;SDS011;44202;52.730;6.470;2022-08-30T06:23:43;9.93;;;7.30;;
58408;SDS011;44202;52.730;6.470;2022-08-30T06:26:09;9.88;;;6.13;;
58408;SDS011;44202;52.730;6.470;2022-08-30T06:28:35;9.02;;;6.70;;
58408;SDS011;44202;52.730;6.470;2022-08-30T06:31:00;8.30;;;6.00;;
58408;SDS011;44202;52.730;6.470;2022-08-30T06:33:29;8.98;;;6.93;;
58408;SDS011;44202;52.730;6.470;2022-08-30T06:36:00;10.27;;;6.57;;
58408;SDS011;44202;52.730;6.470;2022-08-30T06:38:27;9.40;;;6.25;;
58408;SDS011;44202;52.730;6.470;2022-08-30T06:40:52;10.50;;;6.20;;
58408;SDS011;44202;52.730;6.470;2022-08-30T06:43:18;8.73;;;6.05;;
58408;SDS011;44202;52.730;6.470;2022-08-30T06:45:44;9.48;;;4.78;;
58408;SDS011;44202;52.730;6.470;2022-08-30T06:48:09;8.27;;;5.53;;
58408;SDS011;44202;52.730;6.470;2022-08-30T06:50:35;10.52;;;5.75;;
58408;SDS011;44202;52.730;6.470;2022-08-30T06:53:01;6.45;;;5.43;;
58408;SDS011;44202;52.730;6.470;2022-08-30T06:55:30;9.88;;;4.90;;
58408;SDS011;44202;52.730;6.470;2022-08-30T06:58:02;8.52;;;4.25;;
58408;SDS011;44202;52.730;6.470;2022-08-30T07:00:28;5.57;;;3.90;;
58408;SDS011;44202;52.730;6.470;2022-08-30T07:02:55;7.03;;;4.05;;
58408;SDS011;44202;52.730;6.470;2022-08-30T07:05:22;6.55;;;3.38;;
58408;SDS011;44202;52.730;6.470;2022-08-30T07:07:48;5.45;;;3.58;;
58408;SDS011;44202;52.730;6.470;2022-08-30T07:10:17;6.25;;;3.33;;
58408;SDS011;44202;52.730;6.470;2022-08-30T07:12:43;3.88;;;2.80;;
58408;SDS011;44202;52.730;6.470;2022-08-30T07:15:09;4.38;;;2.92;;
58408;SDS011;44202;52.730;6.470;2022-08-30T07:17:35;5.28;;;2.70;;
58408;SDS011;44202;52.730;6.470;2022-08-30T07:20:19;5.05;;;2.45;;
58408;SDS011;44202;52.730;6.470;2022-08-30T07:22:46;5.28;;;2.28;;
58408;SDS011;44202;52.730;6.470;2022-08-30T07:25:12;8.32;;;2.40;;
58408;SDS011;44202;52.730;6.470;2022-08-30T07:27:39;5.70;;;1.83;;
58408;SDS011;44202;52.730;6.470;2022-08-30T07:30:06;5.50;;;1.73;;
58408;SDS011;44202;52.730;6.470;2022-08-30T07:32:33;13.48;;;1.75;;
58408;SDS011;44202;52.730;6.470;2022-08-30T07:34:58;2.38;;;1.33;;
58408;SDS011;44202;52.730;6.470;2022-08-30T07:37:24;2.83;;;1.13;;
58408;SDS011;44202;52.730;6.470;2022-08-30T07:39:50;3.30;;;1.33;;
58408;SDS011;44202;52.730;6.470;2022-08-30T07:42:16;5.07;;;1.17;;
58408;SDS011;44202;52.730;6.470;2022-08-30T07:44:42;4.70;;;1.60;;
58408;SDS011;44202;52.730;6.470;2022-08-30T07:47:08;5.22;;;1.50;;
58408;SDS011;44202;52.730;6.470;2022-08-30T07:49:35;1.60;;;1.00;;
58408;SDS011;44202;52.730;6.470;2022-08-30T07:52:01;2.45;;;1.20;;
58408;SDS011;44202;52.730;6.470;2022-08-30T07:54:27;3.35;;;1.50;;
58408;SDS011;44202;52.730;6.470;2022-08-30T07:56:53;2.45;;;1.13;;
58408;SDS011;44202;52.730;6.470;2022-08-30T07:59:20;3.20;;;1.15;;
58408;SDS011;44202;52.730;6.470;2022-08-30T08:01:49;3.63;;;1.10;;
58408;SDS011;44202;52.730;6.470;2022-08-30T08:04:14;4.70;;;1.20;;
58408;SDS011;44202;52.730;6.470;2022-08-30T08:06:40;9.13;;;1.50;;
58408;SDS011;44202;52.730;6.470;2022-08-30T08:09:07;2.30;;;0.90;;
58408;SDS011;44202;52.730;6.470;2022-08-30T08:11:33;5.07;;;1.20;;
58408;SDS011;44202;52.730;6.470;2022-08-30T08:14:00;3.85;;;1.13;;
58408;SDS011;44202;52.730;6.470;2022-08-30T08:16:27;3.17;;;1.40;;
58408;SDS011;44202;52.730;6.470;2022-08-30T08:18:54;2.10;;;1.17;;
58408;SDS011;44202;52.730;6.470;2022-08-30T08:21:21;3.75;;;1.30;;
58408;SDS011;44202;52.730;6.470;2022-08-30T08:23:48;3.22;;;1.38;;
58408;SDS011;44202;52.730;6.470;2022-08-30T08:26:15;2.55;;;1.10;;
58408;SDS011;44202;52.730;6.470;2022-08-30T08:28:41;2.80;;;1.23;;
58408;SDS011;44202;52.730;6.470;2022-08-30T08:31:17;5.15;;;1.50;;
58408;SDS011;44202;52.730;6.470;2022-08-30T08:33:46;3.45;;;1.20;;
58408;SDS011;44202;52.730;6.470;2022-08-30T08:36:12;3.78;;;1.42;;
58408;SDS011;44202;52.730;6.470;2022-08-30T08:38:37;4.07;;;1.08;;
58408;SDS011;44202;52.730;6.470;2022-08-30T08:43:37;2.95;;;1.35;;
58408;SDS011;44202;52.730;6.470;2022-08-30T08:46:07;1.77;;;1.20;;
58408;SDS011;44202;52.730;6.470;2022-08-30T08:48:56;3.03;;;1.35;;
58408;SDS011;44202;52.730;6.470;2022-08-30T08:51:26;3.42;;;1.30;;
58408;SDS011;44202;52.730;6.470;2022-08-30T08:57:10;2.85;;;1.20;;
58408;SDS011;44202;52.730;6.470;2022-08-30T08:59:36;2.35;;;1.15;;
58408;SDS011;44202;52.730;6.470;2022-08-30T09:02:08;2.60;;;1.10;;
58408;SDS011;44202;52.730;6.470;2022-08-30T09:04:48;2.70;;;1.48;;
58408;SDS011;44202;52.730;6.470;2022-08-30T09:07:22;2.38;;;1.10;;
58408;SDS011;44202;52.730;6.470;2022-08-30T09:09:50;3.95;;;1.15;;
58408;SDS011;44202;52.730;6.470;2022-08-30T09:12:16;2.15;;;1.15;;
58408;SDS011;44202;52.730;6.470;2022-08-30T09:14:43;4.15;;;1.40;;
58408;SDS011;44202;52.730;6.470;2022-08-30T09:17:16;6.72;;;1.63;;
58408;SDS011;44202;52.730;6.470;2022-08-30T09:22:18;2.03;;;1.30;;
58408;SDS011;44202;52.730;6.470;2022-08-30T09:24:51;3.65;;;1.35;;
58408;SDS011;44202;52.730;6.470;2022-08-30T09:35:02;3.42;;;1.27;;
58408;SDS011;44202;52.730;6.470;2022-08-30T09:37:50;4.25;;;1.50;;
58408;SDS011;44202;52.730;6.470;2022-08-30T09:40:21;4.72;;;1.35;;
58408;SDS011;44202;52.730;6.470;2022-08-30T09:46:05;5.57;;;1.30;;
58408;SDS011;44202;52.730;6.470;2022-08-30T09:57:16;1.88;;;1.08;;
58408;SDS011;44202;52.730;6.470;2022-08-30T10:02:06;2.65;;;1.10;;
58408;SDS011;44202;52.730;6.470;2022-08-30T10:25:00;2.65;;;1.10;;
58408;SDS011;44202;52.730;6.470;2022-08-30T10:27:35;2.65;;;1.10;;
58408;SDS011;44202;52.730;6.470;2022-08-30T10:30:15;3.17;;;1.30;;
58408;SDS011;44202;52.730;6.470;2022-08-30T10:32:43;2.78;;;1.20;;
58408;SDS011;44202;52.730;6.470;2022-08-30T10:35:52;1.27;;;1.00;;
58408;SDS011;44202;52.730;6.470;2022-08-30T10:38:17;1.10;;;0.80;;
58408;SDS011;44202;52.730;6.470;2022-08-30T10:40:58;3.10;;;1.08;;
58408;SDS011;44202;52.730;6.470;2022-08-30T10:46:10;1.38;;;1.00;;
58408;SDS011;44202;52.730;6.470;2022-08-30T10:48:43;2.35;;;1.02;;
58408;SDS011;44202;52.730;6.470;2022-08-30T10:51:13;1.30;;;1.10;;
58408;SDS011;44202;52.730;6.470;2022-08-30T10:53:55;2.63;;;1.10;;
58408;SDS011;44202;52.730;6.470;2022-08-30T10:59:20;1.50;;;1.02;;
58408;SDS011;44202;52.730;6.470;2022-08-30T11:07:37;3.20;;;1.23;;
58408;SDS011;44202;52.730;6.470;2022-08-30T11:12:56;2.58;;;1.00;;
58408;SDS011;44202;52.730;6.470;2022-08-30T11:15:30;2.00;;;0.88;;
58408;SDS011;44202;52.730;6.470;2022-08-30T11:18:04;2.20;;;1.10;;
58408;SDS011;44202;52.730;6.470;2022-08-30T11:20:41;2.83;;;1.00;;
58408;SDS011;44202;52.730;6.470;2022-08-30T11:31:07;2.95;;;1.23;;
58408;SDS011;44202;52.730;6.470;2022-08-30T11:33:41;2.72;;;1.05;;
58408;SDS011;44202;52.730;6.470;2022-08-30T11:41:28;2.22;;;0.80;;
58408;SDS011;44202;52.730;6.470;2022-08-30T11:43:54;3.47;;;1.10;;
58408;SDS011;44202;52.730;6.470;2022-08-30T11:46:36;2.05;;;1.00;;
58408;SDS011;44202;52.730;6.470;2022-08-30T11:54:28;1.67;;;0.80;;
58408;SDS011;44202;52.730;6.470;2022-08-30T12:02:53;1.85;;;1.00;;
58408;SDS011;44202;52.730;6.470;2022-08-30T12:10:53;5.85;;;1.23;;
58408;SDS011;44202;52.730;6.470;2022-08-30T12:18:31;3.58;;;1.10;;
58408;SDS011;44202;52.730;6.470;2022-08-30T12:26:39;3.40;;;1.20;;
58408;SDS011;44202;52.730;6.470;2022-08-30T12:29:08;2.30;;;0.93;;
58408;SDS011;44202;52.730;6.470;2022-08-30T12:31:39;3.28;;;1.00;;
58408;SDS011;44202;52.730;6.470;2022-08-30T12:34:07;1.50;;;1.00;;
58408;SDS011;44202;52.730;6.470;2022-08-30T12:36:47;3.35;;;1.00;;
58408;SDS011;44202;52.730;6.470;2022-08-30T12:39:24;2.53;;;0.95;;
58408;SDS011;44202;52.730;6.470;2022-08-30T12:41:55;1.85;;;0.98;;
58408;SDS011;44202;52.730;6.470;2022-08-30T12:44:34;3.55;;;1.23;;
58408;SDS011;44202;52.730;6.470;2022-08-30T12:47:01;2.88;;;1.17;;
58408;SDS011;44202;52.730;6.470;2022-08-30T12:49:31;2.08;;;0.98;;
58408;SDS011;44202;52.730;6.470;2022-08-30T12:54:49;1.48;;;0.70;;
58408;SDS011;44202;52.730;6.470;2022-08-30T13:00:28;1.38;;;0.88;;
58408;SDS011;44202;52.730;6.470;2022-08-30T13:02:57;1.52;;;0.70;;
58408;SDS011;44202;52.730;6.470;2022-08-30T13:10:48;2.55;;;0.90;;
58408;SDS011;44202;52.730;6.470;2022-08-30T13:16:19;1.80;;;0.95;;
58408;SDS011;44202;52.730;6.470;2022-08-30T13:23:45;2.50;;;0.80;;
58408;SDS011;44202;52.730;6.470;2022-08-30T13:26:12;2.42;;;0.70;;
58408;SDS011;44202;52.730;6.470;2022-08-30T13:28:41;5.40;;;0.90;;
58408;SDS011;44202;52.730;6.470;2022-08-30T13:31:14;7.00;;;1.40;;
58408;SDS011;44202;52.730;6.470;2022-08-30T13:33:41;2.08;;;0.70;;
58408;SDS011;44202;52.730;6.470;2022-08-30T13:36:09;5.65;;;0.82;;
58408;SDS011;44202;52.730;6.470;2022-08-30T13:38:36;1.80;;;0.75;;
58408;SDS011;44202;52.730;6.470;2022-08-30T13:41:02;1.75;;;1.00;;
58408;SDS011;44202;52.730;6.470;2022-08-30T13:43:28;1.70;;;0.73;;
58408;SDS011;44202;52.730;6.470;2022-08-30T13:45:53;2.50;;;0.80;;
58408;SDS011;44202;52.730;6.470;2022-08-30T13:48:19;3.92;;;0.82;;
58408;SDS011;44202;52.730;6.470;2022-08-30T13:50:45;3.40;;;0.85;;
58408;SDS011;44202;52.730;6.470;2022-08-30T13:53:10;2.38;;;0.80;;
58408;SDS011;44202;52.730;6.470;2022-08-30T13:55:36;3.13;;;1.00;;
58408;SDS011;44202;52.730;6.470;2022-08-30T13:58:05;1.83;;;0.75;;
58408;SDS011;44202;52.730;6.470;2022-08-30T14:00:31;8.45;;;0.70;;
58408;SDS011;44202;52.730;6.470;2022-08-30T14:02:58;2.28;;;0.93;;
58408;SDS011;44202;52.730;6.470;2022-08-30T14:05:24;4.70;;;1.00;;
58408;SDS011;44202;52.730;6.470;2022-08-30T14:08:01;3.70;;;0.90;;
58408;SDS011;44202;52.730;6.470;2022-08-30T14:10:29;1.67;;;1.00;;
58408;SDS011;44202;52.730;6.470;2022-08-30T14:12:56;2.75;;;0.80;;
58408;SDS011;44202;52.730;6.470;2022-08-30T14:15:21;1.50;;;0.73;;
58408;SDS011;44202;52.730;6.470;2022-08-30T14:17:47;2.00;;;0.70;;
58408;SDS011;44202;52.730;6.470;2022-08-30T14:20:13;3.05;;;0.90;;
58408;SDS011;44202;52.730;6.470;2022-08-30T14:22:39;4.80;;;0.98;;
58408;SDS011;44202;52.730;6.470;2022-08-30T14:25:04;1.85;;;0.65;;
58408;SDS011;44202;52.730;6.470;2022-08-30T14:27:31;2.35;;;0.90;;
58408;SDS011;44202;52.730;6.470;2022-08-30T14:29:56;1.90;;;0.90;;
58408;SDS011;44202;52.730;6.470;2022-08-30T14:32:22;2.17;;;0.90;;
58408;SDS011;44202;52.730;6.470;2022-08-30T14:34:48;2.50;;;0.80;;
58408;SDS011;44202;52.730;6.470;2022-08-30T14:37:14;4.35;;;0.85;;
58408;SDS011;44202;52.730;6.470;2022-08-30T14:39:40;7.15;;;1.02;;
58408;SDS011;44202;52.730;6.470;2022-08-30T14:42:07;1.38;;;0.60;;
58408;SDS011;44202;52.730;6.470;2022-08-30T14:44:33;2.05;;;0.73;;
58408;SDS011;44202;52.730;6.470;2022-08-30T14:46:59;1.85;;;0.75;;
58408;SDS011;44202;52.730;6.470;2022-08-30T14:49:25;3.30;;;0.77;;
58408;SDS011;44202;52.730;6.470;2022-08-30T14:51:51;1.88;;;0.77;;
58408;SDS011;44202;52.730;6.470;2022-08-30T14:54:18;3.78;;;0.75;;
58408;SDS011;44202;52.730;6.470;2022-08-30T14:56:46;1.42;;;0.70;;
58408;SDS011;44202;52.730;6.470;2022-08-30T14:59:12;0.98;;;0.60;;
58408;SDS011;44202;52.730;6.470;2022-08-30T15:01:39;2.80;;;0.73;;
58408;SDS011;44202;52.730;6.470;2022-08-30T15:04:06;1.27;;;0.70;;
58408;SDS011;44202;52.730;6.470;2022-08-30T15:06:33;3.65;;;1.40;;
58408;SDS011;44202;52.730;6.470;2022-08-30T15:09:00;3.67;;;0.80;;
58408;SDS011;44202;52.730;6.470;2022-08-30T15:11:26;2.78;;;0.88;;
58408;SDS011;44202;52.730;6.470;2022-08-30T15:13:52;3.10;;;0.90;;
58408;SDS011;44202;52.730;6.470;2022-08-30T15:16:25;1.95;;;0.90;;
58408;SDS011;44202;52.730;6.470;2022-08-30T15:18:53;1.65;;;0.80;;
58408;SDS011;44202;52.730;6.470;2022-08-30T15:21:27;1.10;;;0.70;;
58408;SDS011;44202;52.730;6.470;2022-08-30T15:23:57;2.95;;;0.80;;
58408;SDS011;44202;52.730;6.470;2022-08-30T15:26:24;2.38;;;0.82;;
58408;SDS011;44202;52.730;6.470;2022-08-30T15:28:50;2.70;;;0.80;;
58408;SDS011;44202;52.730;6.470;2022-08-30T15:31:20;1.52;;;0.70;;
58408;SDS011;44202;52.730;6.470;2022-08-30T15:33:48;0.98;;;0.60;;
58408;SDS011;44202;52.730;6.470;2022-08-30T15:36:14;1.30;;;0.80;;
58408;SDS011;44202;52.730;6.470;2022-08-30T15:38:39;2.03;;;0.80;;
58408;SDS011;44202;52.730;6.470;2022-08-30T15:41:07;4.80;;;0.98;;
58408;SDS011;44202;52.730;6.470;2022-08-30T15:43:34;2.05;;;0.95;;
58408;SDS011;44202;52.730;6.470;2022-08-30T15:46:15;1.63;;;0.77;;
58408;SDS011;44202;52.730;6.470;2022-08-30T15:48:44;1.90;;;0.80;;
58408;SDS011;44202;52.730;6.470;2022-08-30T15:51:10;1.60;;;0.73;;
58408;SDS011;44202;52.730;6.470;2022-08-30T15:53:36;1.45;;;0.80;;
58408;SDS011;44202;52.730;6.470;2022-08-30T15:56:02;1.65;;;0.70;;
58408;SDS011;44202;52.730;6.470;2022-08-30T15:58:28;1.95;;;0.60;;
58408;SDS011;44202;52.730;6.470;2022-08-30T16:00:54;4.95;;;0.70;;
58408;SDS011;44202;52.730;6.470;2022-08-30T16:03:20;1.65;;;0.73;;
58408;SDS011;44202;52.730;6.470;2022-08-30T16:05:45;2.33;;;0.60;;
58408;SDS011;44202;52.730;6.470;2022-08-30T16:08:11;1.67;;;0.93;;
58408;SDS011;44202;52.730;6.470;2022-08-30T16:10:39;1.35;;;0.90;;
58408;SDS011;44202;52.730;6.470;2022-08-30T16:13:05;3.28;;;0.90;;
58408;SDS011;44202;52.730;6.470;2022-08-30T16:15:31;0.90;;;0.80;;
58408;SDS011;44202;52.730;6.470;2022-08-30T16:17:57;3.28;;;1.08;;
58408;SDS011;44202;52.730;6.470;2022-08-30T16:20:23;2.60;;;0.82;;
58408;SDS011;44202;52.730;6.470;2022-08-30T16:22:48;4.00;;;0.75;;
58408;SDS011;44202;52.730;6.470;2022-08-30T16:25:14;2.85;;;0.93;;
58408;SDS011;44202;52.730;6.470;2022-08-30T16:27:40;1.65;;;0.80;;
58408;SDS011;44202;52.730;6.470;2022-08-30T16:30:10;1.02;;;0.63;;
58408;SDS011;44202;52.730;6.470;2022-08-30T16:32:37;1.83;;;0.70;;
58408;SDS011;44202;52.730;6.470;2022-08-30T16:35:03;1.40;;;0.77;;
58408;SDS011;44202;52.730;6.470;2022-08-30T16:37:33;1.92;;;0.50;;
58408;SDS011;44202;52.730;6.470;2022-08-30T16:39:58;1.45;;;0.70;;
58408;SDS011;44202;52.730;6.470;2022-08-30T16:42:24;0.90;;;0.68;;
58408;SDS011;44202;52.730;6.470;2022-08-30T16:44:50;1.95;;;0.85;;
58408;SDS011;44202;52.730;6.470;2022-08-30T16:47:15;1.33;;;0.80;;
58408;SDS011;44202;52.730;6.470;2022-08-30T16:49:41;2.50;;;0.82;;
58408;SDS011;44202;52.730;6.470;2022-08-30T16:52:10;1.33;;;0.88;;
58408;SDS011;44202;52.730;6.470;2022-08-30T16:54:36;2.95;;;0.75;;